createdAt,value
2023-02-14T09:08:54.267Z,20.20
2023-02-14T09:11:24.712Z,17.80
2023-02-14T09:14:03.062Z,21.30
2023-02-14T09:16:34.206Z,20.20
2023-02-14T09:19:02.472Z,19.10
2023-02-14T09:21:36.290Z,18.20
2023-02-14T09:24:04.632Z,17.00
2023-02-14T09:26:40.576Z,15.80
2023-02-14T09:29:10.121Z,17.10
2023-02-14T09:31:38.548Z,16.70
2023-02-14T09:34:17.602Z,13.90
2023-02-14T09:36:45.947Z,15.50
2023-02-14T09:39:17.236Z,18.30
2023-02-14T09:42:08.337Z,18.50
2023-02-14T09:44:51.839Z,18.60
2023-02-14T09:47:47.894Z,16.50
2023-02-14T09:50:28.822Z,15.10
2023-02-14T09:53:06.464Z,13.90
2023-02-14T09:55:50.646Z,16.60
2023-02-14T09:58:56.178Z,15.90
2023-02-14T10:01:31.002Z,16.30
2023-02-14T10:04:13.686Z,15.70
2023-02-14T10:06:51.009Z,14.60
2023-02-14T10:09:40.685Z,14.70
2023-02-14T10:12:22.106Z,19.90
2023-02-14T10:14:57.362Z,16.90
2023-02-14T10:17:37.741Z,16.90
2023-02-14T10:20:41.650Z,19.90
2023-02-14T10:23:33.688Z,16.40
2023-02-14T10:26:25.351Z,14.70
2023-02-14T10:28:56.113Z,17.10
2023-02-14T10:31:51.701Z,14.00
2023-02-14T10:34:45.984Z,16.80
2023-02-14T10:37:33.103Z,15.60
2023-02-14T10:40:38.205Z,16.10
2023-02-14T10:43:27.682Z,18.30
2023-02-14T10:46:23.749Z,17.70
2023-02-14T10:49:10.492Z,19.70
2023-02-14T10:51:58.902Z,17.10
2023-02-14T10:54:42.734Z,15.00
2023-02-14T10:57:30.980Z,15.90
2023-02-14T11:00:03.170Z,13.00
2023-02-14T11:02:48.182Z,13.30
2023-02-14T11:05:33.642Z,16.20
2023-02-14T11:08:02.904Z,17.20
2023-02-14T11:13:20.038Z,15.60
2023-02-14T11:15:51.903Z,16.50
2023-02-14T11:18:25.198Z,15.30
2023-02-14T11:21:12.586Z,15.80
2023-02-14T11:23:45.773Z,17.10
2023-02-14T11:26:33.469Z,15.10
2023-02-14T11:29:14.958Z,20.40
2023-02-14T11:31:45.862Z,14.80
2023-02-14T11:34:40.901Z,15.80
2023-02-14T11:37:34.365Z,14.40
2023-02-14T11:40:29.466Z,14.50
2023-02-14T11:43:20.749Z,15.40
2023-02-14T11:45:50.340Z,13.90
2023-02-14T11:48:37.277Z,13.70
2023-02-14T11:51:14.524Z,13.00
2023-02-14T11:53:56.357Z,15.20
2023-02-14T11:56:24.595Z,16.70
2023-02-14T11:59:04.759Z,14.90
2023-02-14T12:01:36.100Z,13.60
2023-02-14T12:04:14.283Z,11.50
2023-02-14T12:06:44.533Z,14.60
2023-02-14T12:09:24.772Z,12.80
2023-02-14T12:12:00.128Z,13.70
2023-02-14T12:14:34.077Z,16.50
2023-02-14T12:17:14.261Z,13.30
2023-02-14T12:19:54.931Z,13.80
2023-02-14T12:22:28.547Z,14.40
2023-02-14T12:25:05.925Z,13.30
2023-02-14T12:27:49.347Z,12.10
2023-02-14T12:30:23.823Z,12.60
2023-02-14T12:32:56.474Z,12.10
2023-02-14T12:35:43.263Z,16.00
2023-02-14T12:38:27.723Z,14.30
2023-02-14T12:40:59.279Z,13.90
2023-02-14T12:43:53.688Z,14.10
2023-02-14T12:46:31.286Z,12.40
2023-02-14T12:49:18.775Z,12.70
2023-02-14T12:52:18.593Z,14.50
2023-02-14T12:55:06.261Z,13.20
2023-02-14T12:58:09.255Z,13.50
2023-02-14T13:00:43.433Z,14.70
2023-02-14T13:03:52.370Z,12.60
2023-02-14T13:06:28.026Z,13.00
2023-02-14T13:09:28.565Z,14.80
2023-02-14T13:12:08.299Z,13.00
2023-02-14T13:14:58.159Z,12.60
2023-02-14T13:17:55.263Z,14.10
2023-02-14T13:21:11.731Z,20.00
2023-02-14T13:23:47.150Z,16.20
2023-02-14T13:26:37.272Z,13.60
2023-02-14T13:29:11.508Z,15.50
2023-02-14T13:31:41.653Z,13.00
2023-02-14T13:34:33.326Z,13.80
2023-02-14T13:37:06.473Z,16.40
2023-02-14T13:39:39.100Z,17.30
2023-02-14T13:42:08.501Z,15.80
2023-02-14T13:44:44.113Z,16.70
2023-02-14T13:47:21.864Z,16.70
2023-02-14T13:49:59.708Z,20.70
2023-02-14T13:52:40.311Z,15.70
2023-02-14T13:55:26.404Z,16.70
2023-02-14T13:58:18.499Z,16.00
2023-02-14T14:00:48.665Z,14.70
2023-02-14T14:03:28.925Z,14.70
2023-02-14T14:06:02.536Z,12.20
2023-02-14T14:08:32.132Z,12.90
2023-02-14T14:11:03.132Z,14.20
2023-02-14T14:13:40.494Z,14.40
2023-02-14T14:16:24.237Z,15.10
2023-02-14T14:19:30.622Z,12.40
2023-02-14T14:22:05.859Z,13.70
2023-02-14T14:24:40.289Z,16.90
2023-02-14T14:27:15.130Z,16.30
2023-02-14T14:29:52.553Z,14.20
2023-02-14T14:32:26.561Z,12.20
2023-02-14T14:34:56.246Z,16.00
2023-02-14T14:37:27.928Z,13.80
2023-02-14T14:40:07.074Z,15.60
2023-02-14T14:45:32.626Z,13.70
2023-02-14T14:48:08.923Z,14.50
2023-02-14T14:50:45.476Z,14.50
2023-02-14T14:53:32.330Z,15.90
2023-02-14T14:56:01.138Z,15.70
2023-02-14T14:58:34.939Z,19.20
2023-02-14T15:01:04.889Z,16.20
2023-02-14T15:03:36.606Z,16.80
2023-02-14T15:06:20.598Z,17.70
2023-02-14T15:08:49.965Z,15.80
2023-02-14T15:11:47.354Z,17.80
2023-02-14T15:14:22.827Z,18.40
2023-02-14T15:16:57.722Z,18.00
2023-02-14T15:19:35.090Z,18.80
2023-02-14T15:22:07.778Z,17.00
2023-02-14T15:24:38.497Z,16.00
2023-02-14T15:27:22.793Z,15.40
2023-02-14T15:29:58.540Z,18.50
2023-02-14T15:32:32.467Z,14.60
2023-02-14T15:35:07.554Z,16.40
2023-02-14T15:37:38.906Z,17.00
2023-02-14T15:40:09.136Z,15.00
2023-02-14T15:43:01.591Z,15.70
2023-02-14T15:45:32.721Z,18.00
2023-02-14T15:48:08.163Z,19.10
2023-02-14T15:50:46.368Z,22.40
2023-02-14T15:53:20.586Z,24.20
2023-02-14T15:55:50.607Z,18.10
2023-02-14T15:58:22.702Z,18.10
2023-02-14T16:00:53.395Z,19.00
2023-02-14T16:03:26.174Z,21.10
2023-02-14T16:05:55.232Z,19.40
2023-02-14T16:08:33.091Z,19.10
2023-02-14T16:11:09.822Z,22.90
2023-02-14T16:13:42.630Z,19.40
2023-02-14T16:16:13.926Z,17.00
2023-02-14T16:19:12.459Z,24.40
2023-02-14T16:22:04.588Z,16.60
2023-02-14T16:24:38.022Z,20.30
2023-02-14T16:27:19.588Z,18.10
2023-02-14T16:29:59.379Z,18.20
2023-02-14T16:32:30.721Z,22.60
2023-02-14T16:35:00.793Z,21.80
2023-02-14T16:37:36.544Z,19.40
2023-02-14T16:40:14.171Z,16.00
2023-02-14T16:42:43.897Z,18.20
2023-02-14T16:45:17.599Z,17.20
2023-02-14T16:47:49.111Z,17.80
2023-02-14T16:50:28.350Z,17.70
2023-02-14T16:58:01.057Z,19.20
2023-02-14T17:00:29.378Z,21.30
2023-02-14T17:03:06.208Z,20.00
2023-02-14T17:05:36.090Z,17.50
2023-02-14T17:08:06.370Z,15.40
2023-02-14T17:10:35.784Z,20.70
2023-02-14T17:13:08.060Z,17.30
2023-02-14T17:15:49.828Z,16.30
2023-02-14T17:20:48.319Z,16.50
2023-02-14T17:23:16.701Z,18.80
2023-02-14T17:25:44.925Z,14.60
2023-02-14T17:28:13.449Z,15.30
2023-02-14T17:30:41.524Z,16.00
2023-02-14T17:33:10.035Z,17.00
2023-02-14T17:35:38.498Z,17.30
2023-02-14T17:38:06.669Z,15.80
2023-02-14T17:40:35.256Z,17.20
2023-02-14T17:43:04.249Z,16.80
2023-02-14T17:45:32.354Z,15.60
2023-02-14T17:48:01.880Z,12.20
2023-02-14T17:50:39.304Z,15.60
2023-02-14T17:53:07.914Z,12.60
2023-02-14T17:55:37.174Z,10.80
2023-02-14T18:00:34.016Z,15.90
2023-02-14T18:03:02.160Z,12.70
2023-02-14T18:05:30.689Z,12.90
2023-02-14T18:07:58.966Z,13.20
2023-02-14T18:10:37.880Z,14.50
2023-02-14T18:13:28.680Z,14.60
2023-02-14T18:15:57.463Z,12.70
2023-02-14T18:18:25.658Z,14.40
2023-02-14T18:20:55.449Z,13.50
2023-02-14T18:23:24.151Z,13.50
2023-02-14T18:25:55.668Z,15.40
2023-02-14T18:28:25.894Z,13.70
2023-02-14T18:30:54.822Z,11.00
2023-02-14T18:33:25.387Z,12.20
2023-02-14T18:35:57.403Z,16.70
2023-02-14T18:38:25.986Z,12.50
2023-02-14T18:40:54.598Z,12.60
2023-02-14T18:43:22.783Z,11.90
2023-02-14T18:45:51.053Z,13.80
2023-02-14T18:48:19.305Z,14.40
2023-02-14T18:50:47.889Z,14.20
2023-02-14T18:53:18.273Z,12.20
2023-02-14T18:55:46.552Z,13.10
2023-02-14T18:58:15.067Z,12.20
2023-02-14T19:00:43.916Z,12.10
2023-02-14T19:03:12.035Z,13.60
2023-02-14T19:05:40.841Z,14.30
2023-02-14T19:08:09.788Z,15.10
2023-02-14T19:10:45.860Z,13.60
2023-02-14T19:13:14.111Z,13.50
2023-02-14T19:15:42.642Z,14.10
2023-02-14T19:18:10.971Z,12.50
2023-02-14T19:20:39.200Z,11.10
2023-02-14T19:23:07.881Z,13.90
2023-02-14T19:25:38.968Z,11.80
2023-02-14T19:28:07.297Z,11.60
2023-02-14T19:30:40.425Z,11.40
2023-02-14T19:33:08.874Z,11.70
2023-02-14T19:35:40.218Z,14.40
2023-02-14T19:38:08.387Z,13.40
2023-02-14T19:40:36.421Z,11.90
2023-02-14T19:43:04.765Z,15.90
2023-02-14T19:45:33.259Z,12.80
2023-02-14T19:48:03.539Z,13.30
2023-02-14T19:50:32.075Z,13.50
2023-02-14T19:53:00.353Z,15.70
2023-02-14T19:55:28.892Z,12.70
2023-02-14T19:57:57.819Z,12.60
2023-02-14T20:03:01.713Z,11.60
2023-02-14T20:05:33.263Z,15.80
2023-02-14T20:08:01.745Z,17.20
2023-02-14T20:10:29.920Z,13.30
2023-02-14T20:12:58.127Z,15.30
2023-02-14T20:15:30.593Z,13.80
2023-02-14T20:18:02.641Z,13.90
2023-02-14T20:21:04.602Z,14.20
2023-02-14T20:23:34.003Z,14.30
2023-02-14T20:26:02.576Z,12.40
2023-02-14T20:28:31.483Z,14.30
2023-02-14T20:31:00.313Z,14.80
2023-02-14T20:33:31.413Z,14.20
2023-02-14T20:36:01.628Z,14.40
2023-02-14T20:38:32.467Z,12.70
2023-02-14T20:41:09.042Z,14.50
2023-02-14T20:43:38.540Z,15.50
2023-02-14T20:46:10.014Z,15.40
2023-02-14T20:48:41.192Z,13.30
2023-02-14T20:51:13.973Z,14.20
2023-02-14T20:53:46.497Z,13.00
2023-02-14T20:56:21.224Z,15.10
2023-02-14T20:59:07.021Z,14.80
2023-02-14T21:01:37.986Z,14.50
2023-02-14T21:04:22.112Z,16.50
2023-02-14T21:06:50.891Z,14.80
2023-02-14T21:09:22.081Z,15.70
2023-02-14T21:11:53.865Z,13.70
2023-02-14T21:14:53.716Z,14.80
2023-02-14T21:17:21.823Z,16.00
2023-02-14T21:19:53.355Z,13.50
2023-02-14T21:22:24.068Z,14.00
2023-02-14T21:24:52.563Z,14.40
2023-02-14T21:27:22.984Z,13.30
2023-02-14T21:29:51.474Z,17.10
2023-02-14T21:32:30.088Z,16.00
2023-02-14T21:35:00.919Z,16.20
2023-02-14T21:37:32.176Z,15.80
2023-02-14T21:40:00.456Z,14.60
2023-02-14T21:42:31.357Z,16.40
2023-02-14T21:45:19.834Z,15.80
2023-02-14T21:48:09.924Z,15.40
2023-02-14T21:50:40.963Z,16.30
2023-02-14T21:53:09.550Z,15.70
2023-02-14T21:55:38.635Z,14.70
2023-02-14T22:00:36.140Z,17.50
2023-02-14T22:03:13.267Z,15.30
2023-02-14T22:05:41.798Z,20.00
2023-02-14T22:08:10.061Z,16.60
2023-02-14T22:10:41.312Z,20.30
2023-02-14T22:13:09.586Z,17.70
2023-02-14T22:15:40.133Z,15.30
2023-02-14T22:18:08.493Z,19.40
2023-02-14T22:20:36.679Z,15.30
2023-02-14T22:23:04.783Z,16.90
2023-02-14T22:25:33.326Z,17.90
2023-02-14T22:28:01.596Z,18.00
2023-02-14T22:30:29.781Z,17.30
2023-02-14T22:32:58.489Z,18.30
2023-02-14T22:35:27.273Z,16.40
2023-02-14T22:37:56.110Z,19.50
2023-02-14T22:40:24.411Z,19.40
2023-02-14T22:43:01.555Z,20.60
2023-02-14T22:45:29.609Z,16.40
2023-02-14T22:47:57.666Z,20.80
2023-02-14T22:50:26.217Z,19.10
2023-02-14T22:52:57.027Z,18.20
2023-02-14T22:55:31.372Z,21.20
2023-02-14T22:58:00.770Z,19.50
2023-02-14T23:00:28.976Z,22.60
2023-02-14T23:02:57.244Z,20.50
2023-02-14T23:05:28.069Z,19.00
2023-02-14T23:07:56.242Z,19.70
2023-02-14T23:10:24.721Z,16.80
2023-02-14T23:13:12.249Z,16.80
2023-02-14T23:15:59.144Z,20.80
2023-02-14T23:18:46.183Z,19.50
2023-02-14T23:21:33.116Z,17.60
2023-02-14T23:24:01.579Z,20.20
2023-02-14T23:26:29.686Z,21.40
2023-02-14T23:28:57.798Z,16.60
2023-02-14T23:31:26.501Z,16.00
2023-02-14T23:33:54.786Z,18.00
2023-02-14T23:36:26.032Z,17.60
2023-02-14T23:38:54.512Z,17.00
2023-02-14T23:41:41.505Z,19.40
2023-02-14T23:44:09.914Z,15.00
2023-02-14T23:46:38.087Z,15.40
2023-02-14T23:49:06.755Z,18.20
2023-02-14T23:51:36.380Z,15.00
2023-02-14T23:54:04.973Z,18.20
2023-02-14T23:56:33.550Z,17.20
2023-02-14T23:59:02.030Z,15.50
